Terminal Aerodrome Forecast
Issued by NWS Raleigh/Durham, NC

Home | Current Version | Previous Version | Text Only | Print | Product List | Glossary On
Versions: 1 2 3 4 5 6 7 8 9 10 11 12 13 14 15 16 17 18 19 20 21 22 23 24 25 26 27 28 29 30 31 32 33 34
000
FTUS42 KRAH 272028 AAA
TAFRDU
TAF AMD
KRDU 272028Z 2720/2818 23007KT P6SM SCT250
     FM280200 22004KT P6SM SCT050 BKN150
     FM281100 22004KT P6SM SCT015 BKN050
     FM281500 22005KT 4SM -RA BR SCT012 OVC017=

USA.gov is the U.S. government's official web portal to all federal, state and local government web resources and services.